High temp

Not for real navigation. The accuracy of this data is not assured See disclaimer for more information



ICAO NAME COUNTRY WIND Kt GUST Kt VIS m TEMP/DEW C BARO METAR
KEED NEEDLES AIRPORT CA United States 13 22 9999 43/-7 29.73 KEED 192156Z AUTO 23013G22KT 10SM CAVOK 43/M07 A2973 RMK AO2 SLP027 T04281067
KLAA LAMAR MUNICIPAL AIRPORT CO United States 6 18 9999 43/2 29.74 KLAA 192153Z AUTO VRB06G18KT 10SM CAVOK 43/02 A2974 RMK AO2 SLP001 T04280017
KNJK El Centro, Naval Air Facility CA United States 15 23 9999 43/-8 29.72 KNJK 192156Z 23015G23KT 10SM CAVOK 43/M08 A2972 RMK AO2 PK WND 25030/2104 WSHFT 2057 SLP078 T0433108
KNOZ 8 0 9999 42/-3 29.75 KNOZ 192159Z AUTO 25008KT 10SM CAVOK 42/M03 A2975 RMK AO2 SLP022 T04171028
KBLH BLYTHE AIRPORT CA United States 16 22 16000 42/-6 29.73 KBLH 192152Z AUTO 24016G22KT 10SM SCT110 42/M06 A2973 RMK AO2 RAB39E41 SLP058 P0000 T04221061

Show more